sensor_id;sensor_type;location;lat;lon;timestamp;P1;durP1;ratioP1;P2;durP2;ratioP2
11486;SDS011;10510;47.942;9.442;2023-06-22T00:01:02;20.40;;;6.00;;
11486;SDS011;10510;47.942;9.442;2023-06-22T00:03:02;12.45;;;5.70;;
11486;SDS011;10510;47.942;9.442;2023-06-22T00:05:02;11.80;;;5.30;;
11486;SDS011;10510;47.942;9.442;2023-06-22T00:07:03;11.50;;;5.75;;
11486;SDS011;10510;47.942;9.442;2023-06-22T00:09:03;18.95;;;7.45;;
11486;SDS011;10510;47.942;9.442;2023-06-22T00:11:03;15.25;;;6.82;;
11486;SDS011;10510;47.942;9.442;2023-06-22T00:13:04;12.15;;;5.68;;
11486;SDS011;10510;47.942;9.442;2023-06-22T00:15:06;14.73;;;6.28;;
11486;SDS011;10510;47.942;9.442;2023-06-22T00:17:06;17.80;;;6.97;;
11486;SDS011;10510;47.942;9.442;2023-06-22T00:19:07;19.38;;;6.40;;
11486;SDS011;10510;47.942;9.442;2023-06-22T00:21:07;16.67;;;6.05;;
11486;SDS011;10510;47.942;9.442;2023-06-22T00:23:08;13.65;;;6.00;;
11486;SDS011;10510;47.942;9.442;2023-06-22T00:25:08;13.02;;;5.90;;
11486;SDS011;10510;47.942;9.442;2023-06-22T00:27:09;16.98;;;6.05;;
11486;SDS011;10510;47.942;9.442;2023-06-22T00:29:09;13.93;;;6.57;;
11486;SDS011;10510;47.942;9.442;2023-06-22T00:31:09;17.58;;;6.72;;
11486;SDS011;10510;47.942;9.442;2023-06-22T00:33:10;14.32;;;6.10;;
11486;SDS011;10510;47.942;9.442;2023-06-22T00:35:11;21.05;;;7.22;;
11486;SDS011;10510;47.942;9.442;2023-06-22T00:37:12;15.52;;;6.65;;
11486;SDS011;10510;47.942;9.442;2023-06-22T00:39:13;15.63;;;7.40;;
11486;SDS011;10510;47.942;9.442;2023-06-22T00:41:13;18.98;;;6.78;;
11486;SDS011;10510;47.942;9.442;2023-06-22T00:43:14;21.38;;;8.30;;
11486;SDS011;10510;47.942;9.442;2023-06-22T00:45:14;16.08;;;7.75;;
11486;SDS011;10510;47.942;9.442;2023-06-22T00:47:15;15.10;;;7.47;;
11486;SDS011;10510;47.942;9.442;2023-06-22T00:49:17;15.20;;;7.00;;
11486;SDS011;10510;47.942;9.442;2023-06-22T00:51:18;18.42;;;7.50;;
11486;SDS011;10510;47.942;9.442;2023-06-22T00:53:24;17.77;;;7.35;;
11486;SDS011;10510;47.942;9.442;2023-06-22T00:55:24;13.00;;;6.93;;
11486;SDS011;10510;47.942;9.442;2023-06-22T00:57:25;21.02;;;7.80;;
11486;SDS011;10510;47.942;9.442;2023-06-22T00:59:27;16.00;;;7.28;;
11486;SDS011;10510;47.942;9.442;2023-06-22T01:01:28;15.35;;;7.75;;
11486;SDS011;10510;47.942;9.442;2023-06-22T01:03:28;16.98;;;7.43;;
11486;SDS011;10510;47.942;9.442;2023-06-22T01:05:29;15.25;;;8.57;;
11486;SDS011;10510;47.942;9.442;2023-06-22T01:07:34;17.33;;;7.53;;
11486;SDS011;10510;47.942;9.442;2023-06-22T01:09:42;16.75;;;7.95;;
11486;SDS011;10510;47.942;9.442;2023-06-22T01:11:52;21.08;;;8.95;;
11486;SDS011;10510;47.942;9.442;2023-06-22T01:14:00;20.77;;;9.07;;
11486;SDS011;10510;47.942;9.442;2023-06-22T01:16:11;20.65;;;8.63;;
11486;SDS011;10510;47.942;9.442;2023-06-22T01:18:18;18.98;;;8.18;;
11486;SDS011;10510;47.942;9.442;2023-06-22T01:20:20;20.60;;;9.65;;
11486;SDS011;10510;47.942;9.442;2023-06-22T01:22:22;20.48;;;9.25;;
11486;SDS011;10510;47.942;9.442;2023-06-22T01:24:30;21.25;;;9.35;;
11486;SDS011;10510;47.942;9.442;2023-06-22T01:26:42;18.02;;;8.85;;
11486;SDS011;10510;47.942;9.442;2023-06-22T01:28:54;19.55;;;10.10;;
11486;SDS011;10510;47.942;9.442;2023-06-22T01:30:57;14.43;;;8.52;;
11486;SDS011;10510;47.942;9.442;2023-06-22T01:33:05;19.13;;;9.15;;
11486;SDS011;10510;47.942;9.442;2023-06-22T01:35:07;26.48;;;10.82;;
11486;SDS011;10510;47.942;9.442;2023-06-22T01:37:08;25.35;;;9.63;;
11486;SDS011;10510;47.942;9.442;2023-06-22T01:39:09;20.75;;;8.95;;
11486;SDS011;10510;47.942;9.442;2023-06-22T01:41:11;20.42;;;8.55;;
11486;SDS011;10510;47.942;9.442;2023-06-22T01:43:12;23.85;;;9.38;;
11486;SDS011;10510;47.942;9.442;2023-06-22T01:45:13;25.85;;;10.32;;
11486;SDS011;10510;47.942;9.442;2023-06-22T01:47:14;22.20;;;10.00;;
11486;SDS011;10510;47.942;9.442;2023-06-22T01:49:15;24.65;;;9.90;;
11486;SDS011;10510;47.942;9.442;2023-06-22T01:51:15;18.30;;;9.18;;
11486;SDS011;10510;47.942;9.442;2023-06-22T01:53:16;22.05;;;9.82;;
11486;SDS011;10510;47.942;9.442;2023-06-22T01:55:16;22.98;;;10.00;;
11486;SDS011;10510;47.942;9.442;2023-06-22T01:57:17;16.65;;;9.18;;
11486;SDS011;10510;47.942;9.442;2023-06-22T02:01:40;15.68;;;9.27;;
11486;SDS011;10510;47.942;9.442;2023-06-22T02:03:44;17.10;;;10.13;;
11486;SDS011;10510;47.942;9.442;2023-06-22T02:05:52;27.15;;;10.20;;
11486;SDS011;10510;47.942;9.442;2023-06-22T02:08:15;17.77;;;8.77;;
11486;SDS011;10510;47.942;9.442;2023-06-22T02:10:21;21.58;;;10.95;;
11486;SDS011;10510;47.942;9.442;2023-06-22T02:12:24;18.88;;;10.18;;
11486;SDS011;10510;47.942;9.442;2023-06-22T02:14:27;18.92;;;9.82;;
11486;SDS011;10510;47.942;9.442;2023-06-22T02:16:29;23.25;;;10.35;;
11486;SDS011;10510;47.942;9.442;2023-06-22T02:18:31;22.98;;;10.23;;
11486;SDS011;10510;47.942;9.442;2023-06-22T02:20:31;16.55;;;10.02;;
11486;SDS011;10510;47.942;9.442;2023-06-22T02:22:32;18.30;;;10.27;;
11486;SDS011;10510;47.942;9.442;2023-06-22T02:24:32;20.52;;;10.20;;
11486;SDS011;10510;47.942;9.442;2023-06-22T02:26:33;22.92;;;10.95;;
11486;SDS011;10510;47.942;9.442;2023-06-22T02:28:34;23.60;;;10.52;;
11486;SDS011;10510;47.942;9.442;2023-06-22T02:30:34;21.55;;;10.68;;
11486;SDS011;10510;47.942;9.442;2023-06-22T02:32:35;21.48;;;10.10;;
11486;SDS011;10510;47.942;9.442;2023-06-22T02:34:35;19.90;;;10.93;;
11486;SDS011;10510;47.942;9.442;2023-06-22T02:36:36;17.35;;;9.40;;
11486;SDS011;10510;47.942;9.442;2023-06-22T02:38:36;19.52;;;10.32;;
11486;SDS011;10510;47.942;9.442;2023-06-22T02:40:37;23.75;;;11.23;;
11486;SDS011;10510;47.942;9.442;2023-06-22T02:42:39;18.92;;;10.00;;
11486;SDS011;10510;47.942;9.442;2023-06-22T02:44:40;19.75;;;10.73;;
11486;SDS011;10510;47.942;9.442;2023-06-22T02:46:40;22.42;;;11.32;;
11486;SDS011;10510;47.942;9.442;2023-06-22T02:48:40;20.75;;;10.82;;
11486;SDS011;10510;47.942;9.442;2023-06-22T02:50:41;22.38;;;10.88;;
11486;SDS011;10510;47.942;9.442;2023-06-22T02:52:41;19.35;;;10.48;;
11486;SDS011;10510;47.942;9.442;2023-06-22T02:54:41;22.55;;;11.30;;
11486;SDS011;10510;47.942;9.442;2023-06-22T02:56:42;19.17;;;11.48;;
11486;SDS011;10510;47.942;9.442;2023-06-22T02:58:43;19.90;;;11.20;;
11486;SDS011;10510;47.942;9.442;2023-06-22T03:00:44;19.48;;;10.95;;
11486;SDS011;10510;47.942;9.442;2023-06-22T03:02:44;16.50;;;9.77;;
11486;SDS011;10510;47.942;9.442;2023-06-22T03:04:45;27.85;;;10.40;;
11486;SDS011;10510;47.942;9.442;2023-06-22T03:06:48;17.20;;;10.43;;
11486;SDS011;10510;47.942;9.442;2023-06-22T03:08:50;21.08;;;10.55;;
11486;SDS011;10510;47.942;9.442;2023-06-22T03:10:51;22.00;;;10.65;;
11486;SDS011;10510;47.942;9.442;2023-06-22T03:12:51;20.48;;;10.07;;
11486;SDS011;10510;47.942;9.442;2023-06-22T03:14:51;21.77;;;10.80;;
11486;SDS011;10510;47.942;9.442;2023-06-22T03:16:51;25.15;;;11.90;;
11486;SDS011;10510;47.942;9.442;2023-06-22T03:18:52;20.92;;;10.48;;
11486;SDS011;10510;47.942;9.442;2023-06-22T03:20:55;20.42;;;11.25;;
11486;SDS011;10510;47.942;9.442;2023-06-22T03:22:56;18.15;;;10.63;;
11486;SDS011;10510;47.942;9.442;2023-06-22T03:24:56;23.40;;;11.35;;
11486;SDS011;10510;47.942;9.442;2023-06-22T03:26:56;20.02;;;10.60;;
11486;SDS011;10510;47.942;9.442;2023-06-22T03:28:56;29.02;;;10.95;;
11486;SDS011;10510;47.942;9.442;2023-06-22T03:30:57;19.63;;;11.85;;
11486;SDS011;10510;47.942;9.442;2023-06-22T03:32:58;21.52;;;11.57;;
11486;SDS011;10510;47.942;9.442;2023-06-22T03:34:59;22.38;;;10.70;;
11486;SDS011;10510;47.942;9.442;2023-06-22T03:36:59;20.25;;;11.55;;
11486;SDS011;10510;47.942;9.442;2023-06-22T03:39:00;21.48;;;11.90;;
11486;SDS011;10510;47.942;9.442;2023-06-22T03:41:00;22.02;;;11.13;;
11486;SDS011;10510;47.942;9.442;2023-06-22T03:43:00;26.15;;;10.90;;
11486;SDS011;10510;47.942;9.442;2023-06-22T03:45:01;20.60;;;10.90;;
11486;SDS011;10510;47.942;9.442;2023-06-22T03:47:02;26.98;;;12.25;;
11486;SDS011;10510;47.942;9.442;2023-06-22T03:49:04;23.55;;;11.52;;
11486;SDS011;10510;47.942;9.442;2023-06-22T03:51:04;24.75;;;11.20;;
11486;SDS011;10510;47.942;9.442;2023-06-22T03:53:04;20.02;;;10.10;;
11486;SDS011;10510;47.942;9.442;2023-06-22T03:55:05;28.10;;;11.20;;
11486;SDS011;10510;47.942;9.442;2023-06-22T03:57:06;19.95;;;10.60;;
11486;SDS011;10510;47.942;9.442;2023-06-22T03:59:06;21.85;;;11.45;;
11486;SDS011;10510;47.942;9.442;2023-06-22T04:01:06;21.20;;;10.57;;
11486;SDS011;10510;47.942;9.442;2023-06-22T04:03:11;21.88;;;11.73;;
11486;SDS011;10510;47.942;9.442;2023-06-22T04:05:11;24.73;;;10.93;;
11486;SDS011;10510;47.942;9.442;2023-06-22T04:07:12;20.13;;;11.75;;
11486;SDS011;10510;47.942;9.442;2023-06-22T04:09:12;21.05;;;11.23;;
11486;SDS011;10510;47.942;9.442;2023-06-22T04:11:12;21.67;;;11.15;;
11486;SDS011;10510;47.942;9.442;2023-06-22T04:13:13;29.27;;;11.70;;
11486;SDS011;10510;47.942;9.442;2023-06-22T04:15:13;26.45;;;11.32;;
11486;SDS011;10510;47.942;9.442;2023-06-22T04:17:13;20.55;;;10.40;;
11486;SDS011;10510;47.942;9.442;2023-06-22T04:19:14;20.25;;;11.25;;
11486;SDS011;10510;47.942;9.442;2023-06-22T04:21:17;23.65;;;11.43;;
11486;SDS011;10510;47.942;9.442;2023-06-22T04:23:19;24.25;;;11.38;;
11486;SDS011;10510;47.942;9.442;2023-06-22T04:25:19;21.95;;;10.82;;
11486;SDS011;10510;47.942;9.442;2023-06-22T04:27:20;21.67;;;10.85;;
11486;SDS011;10510;47.942;9.442;2023-06-22T04:29:23;18.75;;;10.63;;
11486;SDS011;10510;47.942;9.442;2023-06-22T04:31:28;21.88;;;10.25;;
11486;SDS011;10510;47.942;9.442;2023-06-22T04:33:31;23.00;;;10.70;;
11486;SDS011;10510;47.942;9.442;2023-06-22T04:35:32;21.20;;;11.05;;
11486;SDS011;10510;47.942;9.442;2023-06-22T04:37:32;20.42;;;11.45;;
11486;SDS011;10510;47.942;9.442;2023-06-22T04:39:33;22.67;;;11.20;;
11486;SDS011;10510;47.942;9.442;2023-06-22T04:41:33;22.77;;;11.45;;
11486;SDS011;10510;47.942;9.442;2023-06-22T04:45:42;23.20;;;10.43;;
11486;SDS011;10510;47.942;9.442;2023-06-22T04:47:42;20.05;;;11.80;;
11486;SDS011;10510;47.942;9.442;2023-06-22T04:49:42;19.98;;;11.23;;
11486;SDS011;10510;47.942;9.442;2023-06-22T04:51:43;21.48;;;10.88;;
11486;SDS011;10510;47.942;9.442;2023-06-22T04:53:43;24.95;;;10.57;;
11486;SDS011;10510;47.942;9.442;2023-06-22T04:55:43;19.50;;;11.18;;
11486;SDS011;10510;47.942;9.442;2023-06-22T04:57:45;18.98;;;11.00;;
11486;SDS011;10510;47.942;9.442;2023-06-22T04:59:49;26.10;;;11.43;;
11486;SDS011;10510;47.942;9.442;2023-06-22T05:01:49;23.55;;;11.95;;
11486;SDS011;10510;47.942;9.442;2023-06-22T05:03:51;22.65;;;10.73;;
11486;SDS011;10510;47.942;9.442;2023-06-22T05:05:58;22.73;;;12.15;;
11486;SDS011;10510;47.942;9.442;2023-06-22T05:08:00;22.30;;;11.13;;
11486;SDS011;10510;47.942;9.442;2023-06-22T05:10:02;21.58;;;11.05;;
11486;SDS011;10510;47.942;9.442;2023-06-22T05:12:03;19.42;;;10.45;;
11486;SDS011;10510;47.942;9.442;2023-06-22T05:14:04;17.48;;;10.60;;
11486;SDS011;10510;47.942;9.442;2023-06-22T05:16:05;24.63;;;11.90;;
11486;SDS011;10510;47.942;9.442;2023-06-22T05:18:06;22.85;;;11.68;;
11486;SDS011;10510;47.942;9.442;2023-06-22T05:20:06;21.45;;;11.07;;
11486;SDS011;10510;47.942;9.442;2023-06-22T05:22:07;23.20;;;12.27;;
11486;SDS011;10510;47.942;9.442;2023-06-22T05:24:07;28.02;;;10.77;;
11486;SDS011;10510;47.942;9.442;2023-06-22T05:26:08;16.85;;;10.43;;
11486;SDS011;10510;47.942;9.442;2023-06-22T05:28:10;23.88;;;11.63;;
11486;SDS011;10510;47.942;9.442;2023-06-22T05:30:11;19.23;;;11.48;;
11486;SDS011;10510;47.942;9.442;2023-06-22T05:32:11;18.55;;;10.40;;
11486;SDS011;10510;47.942;9.442;2023-06-22T05:34:11;22.02;;;10.77;;
11486;SDS011;10510;47.942;9.442;2023-06-22T05:36:12;19.02;;;9.63;;
11486;SDS011;10510;47.942;9.442;2023-06-22T05:38:13;23.38;;;10.73;;
11486;SDS011;10510;47.942;9.442;2023-06-22T05:40:14;18.17;;;10.98;;
11486;SDS011;10510;47.942;9.442;2023-06-22T05:42:14;21.33;;;11.25;;
11486;SDS011;10510;47.942;9.442;2023-06-22T05:44:14;17.58;;;10.35;;
11486;SDS011;10510;47.942;9.442;2023-06-22T05:46:14;19.90;;;10.30;;
11486;SDS011;10510;47.942;9.442;2023-06-22T05:48:17;22.65;;;10.68;;
11486;SDS011;10510;47.942;9.442;2023-06-22T05:50:17;20.00;;;10.25;;
11486;SDS011;10510;47.942;9.442;2023-06-22T05:52:18;17.40;;;9.85;;
11486;SDS011;10510;47.942;9.442;2023-06-22T05:54:18;21.55;;;9.65;;
11486;SDS011;10510;47.942;9.442;2023-06-22T05:56:18;22.90;;;10.40;;
11486;SDS011;10510;47.942;9.442;2023-06-22T05:58:19;15.15;;;9.32;;
11486;SDS011;10510;47.942;9.442;2023-06-22T06:00:19;19.45;;;9.73;;
11486;SDS011;10510;47.942;9.442;2023-06-22T06:02:20;16.42;;;10.32;;
11486;SDS011;10510;47.942;9.442;2023-06-22T06:04:20;20.30;;;9.60;;
11486;SDS011;10510;47.942;9.442;2023-06-22T06:06:20;16.50;;;9.52;;
11486;SDS011;10510;47.942;9.442;2023-06-22T06:08:22;24.55;;;8.52;;
11486;SDS011;10510;47.942;9.442;2023-06-22T06:10:23;20.15;;;10.05;;
11486;SDS011;10510;47.942;9.442;2023-06-22T06:12:23;14.68;;;8.60;;
11486;SDS011;10510;47.942;9.442;2023-06-22T06:14:23;18.05;;;9.00;;
11486;SDS011;10510;47.942;9.442;2023-06-22T06:16:24;14.90;;;8.73;;
11486;SDS011;10510;47.942;9.442;2023-06-22T06:18:24;18.35;;;9.02;;
11486;SDS011;10510;47.942;9.442;2023-06-22T06:20:25;19.27;;;9.73;;
11486;SDS011;10510;47.942;9.442;2023-06-22T06:22:27;19.48;;;9.20;;
11486;SDS011;10510;47.942;9.442;2023-06-22T06:24:28;16.20;;;8.45;;
11486;SDS011;10510;47.942;9.442;2023-06-22T06:26:28;16.17;;;9.10;;
11486;SDS011;10510;47.942;9.442;2023-06-22T06:28:29;14.75;;;8.65;;
11486;SDS011;10510;47.942;9.442;2023-06-22T06:30:29;13.52;;;8.23;;
11486;SDS011;10510;47.942;9.442;2023-06-22T06:32:30;20.75;;;8.55;;
11486;SDS011;10510;47.942;9.442;2023-06-22T06:34:30;20.52;;;8.98;;
11486;SDS011;10510;47.942;9.442;2023-06-22T06:36:30;21.85;;;8.90;;
11486;SDS011;10510;47.942;9.442;2023-06-22T06:38:30;14.98;;;7.40;;
11486;SDS011;10510;47.942;9.442;2023-06-22T06:40:34;16.40;;;7.35;;
11486;SDS011;10510;47.942;9.442;2023-06-22T06:42:34;15.70;;;8.00;;
11486;SDS011;10510;47.942;9.442;2023-06-22T06:44:34;13.73;;;7.60;;
11486;SDS011;10510;47.942;9.442;2023-06-22T06:46:35;16.73;;;7.65;;
11486;SDS011;10510;47.942;9.442;2023-06-22T06:48:35;16.10;;;7.60;;
11486;SDS011;10510;47.942;9.442;2023-06-22T06:50:35;14.90;;;7.55;;
11486;SDS011;10510;47.942;9.442;2023-06-22T06:52:36;14.98;;;6.57;;
11486;SDS011;10510;47.942;9.442;2023-06-22T06:54:37;17.15;;;7.93;;
11486;SDS011;10510;47.942;9.442;2023-06-22T06:56:37;14.73;;;7.20;;
11486;SDS011;10510;47.942;9.442;2023-06-22T06:58:40;15.95;;;7.97;;
11486;SDS011;10510;47.942;9.442;2023-06-22T07:00:42;13.68;;;7.25;;
11486;SDS011;10510;47.942;9.442;2023-06-22T07:02:43;16.70;;;7.70;;
11486;SDS011;10510;47.942;9.442;2023-06-22T07:04:45;14.50;;;7.35;;
11486;SDS011;10510;47.942;9.442;2023-06-22T07:06:46;15.77;;;7.13;;
11486;SDS011;10510;47.942;9.442;2023-06-22T07:08:47;15.63;;;7.20;;
11486;SDS011;10510;47.942;9.442;2023-06-22T07:10:47;14.95;;;7.30;;
11486;SDS011;10510;47.942;9.442;2023-06-22T07:12:47;15.75;;;7.20;;
11486;SDS011;10510;47.942;9.442;2023-06-22T07:14:47;15.35;;;7.50;;
11486;SDS011;10510;47.942;9.442;2023-06-22T07:16:48;17.85;;;7.55;;
11486;SDS011;10510;47.942;9.442;2023-06-22T07:18:48;19.13;;;6.60;;
11486;SDS011;10510;47.942;9.442;2023-06-22T07:20:48;15.25;;;7.60;;
11486;SDS011;10510;47.942;9.442;2023-06-22T07:22:48;20.52;;;6.95;;
11486;SDS011;10510;47.942;9.442;2023-06-22T07:24:49;10.23;;;6.22;;
11486;SDS011;10510;47.942;9.442;2023-06-22T07:26:49;13.98;;;7.13;;
11486;SDS011;10510;47.942;9.442;2023-06-22T07:28:50;12.30;;;6.80;;
11486;SDS011;10510;47.942;9.442;2023-06-22T07:30:50;20.02;;;7.50;;
11486;SDS011;10510;47.942;9.442;2023-06-22T07:32:51;12.85;;;7.30;;
11486;SDS011;10510;47.942;9.442;2023-06-22T07:34:51;15.77;;;6.97;;
11486;SDS011;10510;47.942;9.442;2023-06-22T07:36:51;15.15;;;6.65;;
11486;SDS011;10510;47.942;9.442;2023-06-22T07:38:52;14.82;;;6.30;;
11486;SDS011;10510;47.942;9.442;2023-06-22T07:40:52;12.60;;;6.60;;
11486;SDS011;10510;47.942;9.442;2023-06-22T07:42:53;16.85;;;6.70;;
11486;SDS011;10510;47.942;9.442;2023-06-22T07:44:53;16.23;;;7.60;;
11486;SDS011;10510;47.942;9.442;2023-06-22T07:46:54;15.52;;;6.47;;
11486;SDS011;10510;47.942;9.442;2023-06-22T07:48:55;18.42;;;7.35;;
11486;SDS011;10510;47.942;9.442;2023-06-22T07:50:55;14.05;;;7.28;;
11486;SDS011;10510;47.942;9.442;2023-06-22T07:52:55;20.27;;;7.38;;
11486;SDS011;10510;47.942;9.442;2023-06-22T07:54:55;13.65;;;7.20;;
11486;SDS011;10510;47.942;9.442;2023-06-22T07:56:56;14.73;;;6.43;;
11486;SDS011;10510;47.942;9.442;2023-06-22T07:58:56;16.13;;;6.65;;
11486;SDS011;10510;47.942;9.442;2023-06-22T08:00:59;15.68;;;6.68;;
11486;SDS011;10510;47.942;9.442;2023-06-22T08:02:59;13.82;;;7.45;;
11486;SDS011;10510;47.942;9.442;2023-06-22T08:04:59;11.73;;;6.25;;
11486;SDS011;10510;47.942;9.442;2023-06-22T08:07:00;10.55;;;5.70;;
11486;SDS011;10510;47.942;9.442;2023-06-22T08:09:01;13.88;;;6.60;;
11486;SDS011;10510;47.942;9.442;2023-06-22T08:11:01;17.73;;;7.53;;
11486;SDS011;10510;47.942;9.442;2023-06-22T08:13:01;13.70;;;6.80;;
11486;SDS011;10510;47.942;9.442;2023-06-22T08:15:02;26.52;;;7.57;;
11486;SDS011;10510;47.942;9.442;2023-06-22T08:17:03;29.40;;;7.93;;
11486;SDS011;10510;47.942;9.442;2023-06-22T08:19:03;17.08;;;7.13;;
11486;SDS011;10510;47.942;9.442;2023-06-22T08:21:03;14.87;;;7.07;;
11486;SDS011;10510;47.942;9.442;2023-06-22T08:23:04;12.75;;;6.35;;
11486;SDS011;10510;47.942;9.442;2023-06-22T08:25:06;12.70;;;6.63;;
11486;SDS011;10510;47.942;9.442;2023-06-22T08:27:07;17.48;;;6.75;;
11486;SDS011;10510;47.942;9.442;2023-06-22T08:29:15;13.88;;;6.60;;
11486;SDS011;10510;47.942;9.442;2023-06-22T08:31:16;12.68;;;6.20;;
11486;SDS011;10510;47.942;9.442;2023-06-22T08:33:16;13.50;;;7.32;;
11486;SDS011;10510;47.942;9.442;2023-06-22T08:35:17;13.90;;;6.55;;
11486;SDS011;10510;47.942;9.442;2023-06-22T08:37:18;21.80;;;8.15;;
11486;SDS011;10510;47.942;9.442;2023-06-22T08:39:19;23.05;;;8.77;;
11486;SDS011;10510;47.942;9.442;2023-06-22T08:41:20;13.55;;;7.57;;
11486;SDS011;10510;47.942;9.442;2023-06-22T08:43:20;16.75;;;7.63;;
11486;SDS011;10510;47.942;9.442;2023-06-22T08:45:20;14.00;;;7.57;;
11486;SDS011;10510;47.942;9.442;2023-06-22T08:47:21;15.10;;;6.97;;
11486;SDS011;10510;47.942;9.442;2023-06-22T08:49:22;15.40;;;8.43;;
11486;SDS011;10510;47.942;9.442;2023-06-22T08:51:23;17.27;;;8.47;;
11486;SDS011;10510;47.942;9.442;2023-06-22T08:53:24;18.52;;;8.50;;
11486;SDS011;10510;47.942;9.442;2023-06-22T08:55:24;16.73;;;8.25;;
11486;SDS011;10510;47.942;9.442;2023-06-22T08:57:24;12.38;;;9.07;;
11486;SDS011;10510;47.942;9.442;2023-06-22T08:59:24;15.63;;;8.75;;
11486;SDS011;10510;47.942;9.442;2023-06-22T09:01:25;15.38;;;8.35;;
11486;SDS011;10510;47.942;9.442;2023-06-22T09:03:25;22.45;;;9.07;;
11486;SDS011;10510;47.942;9.442;2023-06-22T09:05:26;17.67;;;8.98;;
11486;SDS011;10510;47.942;9.442;2023-06-22T09:07:26;17.95;;;8.70;;
11486;SDS011;10510;47.942;9.442;2023-06-22T09:09:26;14.27;;;7.75;;
11486;SDS011;10510;47.942;9.442;2023-06-22T09:11:27;20.42;;;7.88;;
11486;SDS011;10510;47.942;9.442;2023-06-22T09:13:29;14.25;;;8.00;;
11486;SDS011;10510;47.942;9.442;2023-06-22T09:15:31;12.07;;;8.07;;
11486;SDS011;10510;47.942;9.442;2023-06-22T09:17:31;14.48;;;8.70;;
11486;SDS011;10510;47.942;9.442;2023-06-22T09:19:32;17.92;;;9.68;;
11486;SDS011;10510;47.942;9.442;2023-06-22T09:21:33;19.58;;;8.85;;
11486;SDS011;10510;47.942;9.442;2023-06-22T09:23:33;16.52;;;8.98;;
11486;SDS011;10510;47.942;9.442;2023-06-22T09:25:33;15.02;;;8.98;;
11486;SDS011;10510;47.942;9.442;2023-06-22T09:27:33;16.52;;;10.05;;
11486;SDS011;10510;47.942;9.442;2023-06-22T09:29:34;21.75;;;9.25;;
11486;SDS011;10510;47.942;9.442;2023-06-22T09:31:34;22.92;;;8.98;;
11486;SDS011;10510;47.942;9.442;2023-06-22T09:33:35;15.77;;;9.27;;
11486;SDS011;10510;47.942;9.442;2023-06-22T09:35:36;16.45;;;8.18;;
11486;SDS011;10510;47.942;9.442;2023-06-22T09:37:36;17.90;;;9.25;;
11486;SDS011;10510;47.942;9.442;2023-06-22T09:39:36;17.73;;;8.45;;
11486;SDS011;10510;47.942;9.442;2023-06-22T09:41:37;18.23;;;7.50;;
11486;SDS011;10510;47.942;9.442;2023-06-22T09:43:37;17.08;;;7.93;;
11486;SDS011;10510;47.942;9.442;2023-06-22T09:45:37;17.48;;;8.73;;
11486;SDS011;10510;47.942;9.442;2023-06-22T09:47:37;18.65;;;8.27;;
11486;SDS011;10510;47.942;9.442;2023-06-22T09:49:38;16.50;;;7.97;;
11486;SDS011;10510;47.942;9.442;2023-06-22T09:51:38;14.05;;;7.78;;
11486;SDS011;10510;47.942;9.442;2023-06-22T09:53:38;23.73;;;8.40;;
11486;SDS011;10510;47.942;9.442;2023-06-22T09:55:38;19.23;;;8.27;;
11486;SDS011;10510;47.942;9.442;2023-06-22T09:57:39;16.48;;;8.15;;
11486;SDS011;10510;47.942;9.442;2023-06-22T09:59:39;13.35;;;7.03;;
11486;SDS011;10510;47.942;9.442;2023-06-22T10:01:42;15.63;;;9.00;;
11486;SDS011;10510;47.942;9.442;2023-06-22T10:03:42;12.85;;;6.70;;
11486;SDS011;10510;47.942;9.442;2023-06-22T10:05:43;15.80;;;7.13;;
11486;SDS011;10510;47.942;9.442;2023-06-22T10:07:43;17.73;;;7.63;;
11486;SDS011;10510;47.942;9.442;2023-06-22T10:09:44;12.98;;;6.38;;
11486;SDS011;10510;47.942;9.442;2023-06-22T10:11:44;15.27;;;5.88;;
11486;SDS011;10510;47.942;9.442;2023-06-22T10:13:44;15.80;;;6.20;;
11486;SDS011;10510;47.942;9.442;2023-06-22T10:15:44;17.42;;;6.25;;
11486;SDS011;10510;47.942;9.442;2023-06-22T10:17:51;18.40;;;6.07;;
11486;SDS011;10510;47.942;9.442;2023-06-22T10:19:51;19.23;;;6.35;;
11486;SDS011;10510;47.942;9.442;2023-06-22T10:21:51;15.00;;;6.45;;
11486;SDS011;10510;47.942;9.442;2023-06-22T10:23:52;13.93;;;5.68;;
11486;SDS011;10510;47.942;9.442;2023-06-22T10:25:52;19.33;;;6.72;;
11486;SDS011;10510;47.942;9.442;2023-06-22T10:27:52;13.17;;;6.03;;
11486;SDS011;10510;47.942;9.442;2023-06-22T10:29:52;17.00;;;6.38;;
11486;SDS011;10510;47.942;9.442;2023-06-22T10:31:53;16.88;;;5.72;;
11486;SDS011;10510;47.942;9.442;2023-06-22T10:33:54;16.77;;;5.90;;
11486;SDS011;10510;47.942;9.442;2023-06-22T10:35:55;13.40;;;5.90;;
11486;SDS011;10510;47.942;9.442;2023-06-22T10:37:55;14.02;;;5.85;;
11486;SDS011;10510;47.942;9.442;2023-06-22T10:39:56;12.38;;;5.88;;
11486;SDS011;10510;47.942;9.442;2023-06-22T10:41:56;15.93;;;5.82;;
11486;SDS011;10510;47.942;9.442;2023-06-22T10:43:56;10.85;;;5.78;;
11486;SDS011;10510;47.942;9.442;2023-06-22T10:45:57;16.67;;;7.05;;
11486;SDS011;10510;47.942;9.442;2023-06-22T10:47:57;14.88;;;5.60;;
11486;SDS011;10510;47.942;9.442;2023-06-22T10:49:57;13.20;;;6.27;;
11486;SDS011;10510;47.942;9.442;2023-06-22T10:51:58;15.77;;;6.07;;
11486;SDS011;10510;47.942;9.442;2023-06-22T10:53:58;14.70;;;6.63;;
11486;SDS011;10510;47.942;9.442;2023-06-22T10:55:58;17.35;;;5.63;;
11486;SDS011;10510;47.942;9.442;2023-06-22T10:57:58;15.57;;;5.95;;
11486;SDS011;10510;47.942;9.442;2023-06-22T10:59:59;12.00;;;4.93;;
11486;SDS011;10510;47.942;9.442;2023-06-22T11:01:59;10.48;;;4.82;;
11486;SDS011;10510;47.942;9.442;2023-06-22T11:03:59;15.90;;;5.28;;
11486;SDS011;10510;47.942;9.442;2023-06-22T11:06:00;21.30;;;5.68;;
11486;SDS011;10510;47.942;9.442;2023-06-22T11:08:00;14.60;;;5.57;;
11486;SDS011;10510;47.942;9.442;2023-06-22T11:10:00;21.30;;;5.00;;
11486;SDS011;10510;47.942;9.442;2023-06-22T11:12:00;17.23;;;4.72;;
11486;SDS011;10510;47.942;9.442;2023-06-22T11:14:01;10.38;;;5.13;;
11486;SDS011;10510;47.942;9.442;2023-06-22T11:16:01;14.43;;;5.55;;
11486;SDS011;10510;47.942;9.442;2023-06-22T11:18:02;12.45;;;4.95;;
11486;SDS011;10510;47.942;9.442;2023-06-22T11:20:02;12.43;;;4.88;;
11486;SDS011;10510;47.942;9.442;2023-06-22T11:24:09;22.60;;;4.73;;
11486;SDS011;10510;47.942;9.442;2023-06-22T11:26:10;11.95;;;4.72;;
11486;SDS011;10510;47.942;9.442;2023-06-22T11:28:10;12.13;;;4.93;;
11486;SDS011;10510;47.942;9.442;2023-06-22T11:30:10;16.52;;;5.10;;
11486;SDS011;10510;47.942;9.442;2023-06-22T11:32:11;12.95;;;4.90;;
11486;SDS011;10510;47.942;9.442;2023-06-22T11:34:11;10.20;;;4.25;;
11486;SDS011;10510;47.942;9.442;2023-06-22T11:36:11;16.08;;;4.93;;
11486;SDS011;10510;47.942;9.442;2023-06-22T11:38:12;13.63;;;4.00;;
11486;SDS011;10510;47.942;9.442;2023-06-22T11:40:12;15.65;;;5.68;;
11486;SDS011;10510;47.942;9.442;2023-06-22T11:42:12;11.10;;;4.70;;
11486;SDS011;10510;47.942;9.442;2023-06-22T11:44:13;13.35;;;5.07;;
11486;SDS011;10510;47.942;9.442;2023-06-22T11:46:13;12.00;;;4.85;;
11486;SDS011;10510;47.942;9.442;2023-06-22T11:48:13;15.48;;;4.88;;
11486;SDS011;10510;47.942;9.442;2023-06-22T11:50:14;12.93;;;4.20;;
11486;SDS011;10510;47.942;9.442;2023-06-22T11:52:15;14.50;;;5.13;;
11486;SDS011;10510;47.942;9.442;2023-06-22T11:54:17;13.50;;;5.40;;
11486;SDS011;10510;47.942;9.442;2023-06-22T11:56:17;14.95;;;4.85;;
11486;SDS011;10510;47.942;9.442;2023-06-22T11:58:18;16.20;;;4.73;;
11486;SDS011;10510;47.942;9.442;2023-06-22T12:00:18;17.15;;;4.65;;
11486;SDS011;10510;47.942;9.442;2023-06-22T12:02:19;13.30;;;5.30;;